createdAt,value
2022-10-04T00:02:00.688Z,99105.19
2022-10-04T00:04:35.977Z,99111.31
2022-10-04T00:07:10.768Z,99105.31
2022-10-04T00:09:49.230Z,99094.44
2022-10-04T00:12:25.605Z,99093.59
2022-10-04T00:14:58.166Z,99090.69
2022-10-04T00:17:31.798Z,99095.06
2022-10-04T00:20:01.898Z,99092.47
2022-10-04T00:22:32.725Z,99083.72
2022-10-04T00:25:23.342Z,99090.88
2022-10-04T00:28:32.344Z,99088.97
2022-10-04T00:31:22.095Z,99079.81
2022-10-04T00:33:54.333Z,99090.31
2022-10-04T00:36:51.004Z,99081.88
2022-10-04T00:39:42.115Z,99083.00
2022-10-04T00:42:41.628Z,99085.56
2022-10-04T00:45:33.850Z,99083.31
2022-10-04T00:48:34.184Z,99082.50
2022-10-04T00:51:11.990Z,99077.69
2022-10-04T00:53:50.598Z,99081.41
2022-10-04T00:56:28.919Z,99079.53
2022-10-04T00:59:25.138Z,99077.03
2022-10-04T01:02:01.743Z,99069.22
2022-10-04T01:04:40.803Z,99067.06
2022-10-04T01:07:12.782Z,99067.44
2022-10-04T01:09:51.578Z,99076.00
2022-10-04T01:12:35.347Z,99069.22
2022-10-04T01:15:10.550Z,99065.28
2022-10-04T01:17:40.499Z,99060.38
2022-10-04T01:20:35.028Z,99056.75
2022-10-04T01:23:08.144Z,99061.16
2022-10-04T01:25:50.051Z,99063.78
2022-10-04T01:28:20.496Z,99056.50
2022-10-04T01:30:50.704Z,99047.59
2022-10-04T01:33:20.599Z,99063.00
2022-10-04T01:35:51.145Z,99060.69
2022-10-04T01:38:23.599Z,99053.41
2022-10-04T01:41:00.114Z,99049.78
2022-10-04T01:43:35.936Z,99045.69
2022-10-04T01:46:12.051Z,99051.53
2022-10-04T01:48:46.687Z,99030.94
2022-10-04T01:51:21.182Z,99041.72
2022-10-04T01:53:59.150Z,99038.41
2022-10-04T01:56:35.051Z,99030.94
2022-10-04T01:59:10.409Z,99028.59
2022-10-04T02:01:48.490Z,99013.09
2022-10-04T02:04:22.735Z,99020.63
2022-10-04T02:06:57.854Z,99013.94
2022-10-04T02:09:35.068Z,99004.25
2022-10-04T02:12:06.447Z,99010.50
2022-10-04T02:14:37.498Z,99006.06
2022-10-04T02:17:11.671Z,99016.84
2022-10-04T02:19:45.198Z,99015.81
2022-10-04T02:22:15.088Z,99007.66
2022-10-04T02:24:51.382Z,99003.28
2022-10-04T02:27:21.227Z,98995.13
2022-10-04T02:29:50.986Z,98994.50
2022-10-04T02:32:33.313Z,99002.03
2022-10-04T02:35:04.171Z,98997.78
2022-10-04T02:37:34.810Z,99010.34
2022-10-04T02:40:15.863Z,99008.97
2022-10-04T02:42:52.211Z,99010.03
2022-10-04T02:45:27.523Z,99008.00
2022-10-04T02:48:04.135Z,98997.50
2022-10-04T02:50:39.203Z,99011.06
2022-10-04T02:53:21.572Z,99004.63
2022-10-04T02:55:54.482Z,99006.53
2022-10-04T02:58:26.871Z,99003.63
2022-10-04T03:01:00.938Z,99000.50
2022-10-04T03:03:32.532Z,99001.09
2022-10-04T03:06:09.853Z,99002.94
2022-10-04T03:08:47.813Z,99001.41
2022-10-04T03:11:22.843Z,98999.50
2022-10-04T03:13:55.703Z,98995.53
2022-10-04T03:16:26.438Z,98985.72
2022-10-04T03:18:59.790Z,98986.91
2022-10-04T03:21:30.563Z,98986.34
2022-10-04T03:24:01.193Z,98985.56
2022-10-04T03:26:39.601Z,98977.75
2022-10-04T03:29:12.118Z,98973.81
2022-10-04T03:31:45.883Z,98967.53
2022-10-04T03:34:20.242Z,98977.38
2022-10-04T03:36:52.236Z,98968.25
2022-10-04T03:39:30.850Z,98973.53
2022-10-04T03:42:07.235Z,98975.50
2022-10-04T03:44:37.823Z,98977.19
2022-10-04T03:47:12.215Z,98970.91
2022-10-04T03:49:48.545Z,98971.97
2022-10-04T03:52:25.621Z,98965.06
2022-10-04T03:54:58.180Z,98971.25
2022-10-04T03:57:31.437Z,98965.53
2022-10-04T04:00:02.189Z,98975.63
2022-10-04T04:02:38.840Z,98975.53
2022-10-04T04:05:17.647Z,98987.03
2022-10-04T04:07:49.664Z,98973.13
2022-10-04T04:10:24.676Z,98982.19
2022-10-04T04:13:01.631Z,98978.63
2022-10-04T04:15:32.866Z,98982.66
2022-10-04T04:18:06.288Z,98977.41
2022-10-04T04:20:38.188Z,98972.75
2022-10-04T04:23:19.356Z,98964.69
2022-10-04T04:25:52.175Z,98952.94
2022-10-04T04:28:33.127Z,98953.41
2022-10-04T04:31:07.027Z,98952.94
2022-10-04T04:33:46.462Z,98959.56
2022-10-04T04:36:18.681Z,98958.09
2022-10-04T04:39:00.697Z,98963.19
2022-10-04T04:41:35.577Z,98971.38
2022-10-04T04:44:19.581Z,98963.34
2022-10-04T04:46:50.258Z,98969.13
2022-10-04T04:49:23.903Z,98976.59
2022-10-04T04:51:56.045Z,98970.31
2022-10-04T04:54:28.855Z,98976.31
2022-10-04T04:56:59.776Z,98967.00
2022-10-04T04:59:32.367Z,98974.84
2022-10-04T05:02:02.209Z,98973.59
2022-10-04T05:04:32.115Z,98968.13
2022-10-04T05:07:10.164Z,98979.28
2022-10-04T05:09:41.394Z,98982.63
2022-10-04T05:12:16.666Z,98991.50
2022-10-04T05:14:53.190Z,98999.06
2022-10-04T05:17:25.944Z,99004.63
2022-10-04T05:19:59.123Z,98992.72
2022-10-04T05:22:30.270Z,99002.06
2022-10-04T05:25:03.874Z,99010.34
2022-10-04T05:27:38.338Z,99011.59
2022-10-04T05:30:17.494Z,99003.00
2022-10-04T05:33:00.837Z,99009.69
2022-10-04T05:35:32.341Z,99009.94
2022-10-04T05:38:07.879Z,99002.78
2022-10-04T05:40:47.587Z,99011.91
2022-10-04T05:43:35.072Z,99005.91
2022-10-04T05:46:31.267Z,99004.88
2022-10-04T05:49:04.370Z,99004.16
2022-10-04T05:51:38.743Z,98995.06
2022-10-04T05:54:12.165Z,98999.09
2022-10-04T05:57:05.470Z,98996.50
2022-10-04T05:59:55.470Z,98992.13
2022-10-04T06:02:40.153Z,98983.44
2022-10-04T06:05:17.289Z,98986.75
2022-10-04T06:07:56.901Z,98980.94
2022-10-04T06:10:52.140Z,98986.66
2022-10-04T06:13:41.612Z,98980.00
2022-10-04T06:16:23.028Z,98988.72
2022-10-04T06:19:37.481Z,98981.81
2022-10-04T06:22:19.003Z,98978.50
2022-10-04T06:24:53.097Z,98983.06
2022-10-04T06:27:30.276Z,98989.94
2022-10-04T06:30:05.651Z,98988.22
2022-10-04T06:33:08.145Z,98997.28
2022-10-04T06:36:10.708Z,99003.59
2022-10-04T06:39:10.747Z,99013.34
2022-10-04T06:42:07.734Z,99009.84
2022-10-04T06:44:47.756Z,99009.97
2022-10-04T06:47:36.293Z,99006.19
2022-10-04T06:50:22.518Z,99000.53
2022-10-04T06:53:07.647Z,98998.19
2022-10-04T06:56:05.803Z,98999.16
2022-10-04T06:59:00.346Z,99007.97
2022-10-04T07:01:32.878Z,99009.75
2022-10-04T07:04:15.381Z,99010.22
2022-10-04T07:06:52.156Z,99012.09
2022-10-04T07:09:27.370Z,99013.56
2022-10-04T07:12:09.030Z,99018.03
2022-10-04T07:14:46.420Z,99018.78
2022-10-04T07:17:20.940Z,99013.38
2022-10-04T07:19:52.765Z,99016.22
2022-10-04T07:22:31.278Z,99016.19
2022-10-04T07:25:10.090Z,99019.75
2022-10-04T07:28:12.923Z,99024.34
2022-10-04T07:30:45.850Z,99025.13
2022-10-04T07:33:21.147Z,99035.72
2022-10-04T07:35:56.977Z,99037.28
2022-10-04T07:38:30.257Z,99040.94
2022-10-04T07:41:12.163Z,99044.34
2022-10-04T07:43:53.593Z,99047.72
2022-10-04T07:46:29.208Z,99050.13
2022-10-04T07:49:00.199Z,99056.50
2022-10-04T07:51:37.516Z,99055.13
2022-10-04T07:54:17.533Z,99042.69
2022-10-04T07:56:54.774Z,99036.44
2022-10-04T07:59:41.036Z,99030.84
2022-10-04T08:02:25.566Z,99035.38
2022-10-04T08:05:11.188Z,99041.75
2022-10-04T08:07:53.451Z,99048.22
2022-10-04T08:10:30.734Z,99048.38
2022-10-04T08:13:08.291Z,99043.06
2022-10-04T08:15:42.673Z,99038.09
2022-10-04T08:18:32.489Z,99029.66
2022-10-04T08:21:05.066Z,99021.31
2022-10-04T08:23:50.756Z,99024.59
2022-10-04T08:26:43.324Z,99010.97
2022-10-04T08:29:42.395Z,99014.97
2022-10-04T08:32:28.699Z,99019.66
2022-10-04T08:35:23.639Z,99014.41
2022-10-04T08:38:06.887Z,99014.13
2022-10-04T08:41:24.420Z,99011.75
2022-10-04T08:44:27.405Z,99010.81
2022-10-04T08:47:29.611Z,99011.78
2022-10-04T08:50:27.823Z,99013.84
2022-10-04T08:53:40.941Z,99028.81
2022-10-04T08:56:21.419Z,99027.22
2022-10-04T08:59:13.036Z,99033.19
2022-10-04T09:02:18.207Z,99035.13
2022-10-04T09:05:16.416Z,99029.31
2022-10-04T09:08:14.968Z,99035.88
2022-10-04T09:11:22.977Z,99026.38
2022-10-04T09:14:15.083Z,99031.84
2022-10-04T09:16:49.741Z,99037.47
2022-10-04T09:19:25.147Z,99027.47
2022-10-04T09:22:22.182Z,99029.22
2022-10-04T09:25:21.470Z,99026.97
2022-10-04T09:28:07.536Z,99014.78
2022-10-04T09:30:57.942Z,99001.41
2022-10-04T09:33:57.367Z,99000.50
2022-10-04T09:37:01.198Z,99004.00
2022-10-04T09:39:59.228Z,99004.09
2022-10-04T09:43:09.523Z,99002.75
2022-10-04T09:46:12.757Z,99007.22
2022-10-04T09:48:53.479Z,98999.38
2022-10-04T09:51:41.126Z,98995.63
2022-10-04T09:54:25.214Z,98993.09
2022-10-04T09:57:11.689Z,99001.44
2022-10-04T10:00:00.122Z,99007.66
2022-10-04T10:03:01.909Z,98998.50
2022-10-04T10:05:50.225Z,99001.34
2022-10-04T10:08:29.845Z,98994.50
2022-10-04T10:11:22.099Z,98988.31
2022-10-04T10:14:33.177Z,98997.13
2022-10-04T10:17:14.830Z,98992.38
2022-10-04T10:20:12.182Z,98999.25
2022-10-04T10:23:16.330Z,98992.97
2022-10-04T10:26:03.054Z,99001.22
2022-10-04T10:28:51.986Z,98999.19
2022-10-04T10:31:51.161Z,99002.16
2022-10-04T10:34:52.474Z,99003.84
2022-10-04T10:37:37.998Z,98996.16
2022-10-04T10:40:31.876Z,98990.78
2022-10-04T10:43:21.302Z,98994.66
2022-10-04T10:46:07.500Z,98993.78
2022-10-04T10:48:56.845Z,99000.69
2022-10-04T10:51:56.106Z,98990.69
2022-10-04T10:54:54.019Z,98987.16
2022-10-04T10:57:46.351Z,98985.13
2022-10-04T11:00:24.232Z,98981.53
2022-10-04T11:03:32.391Z,98979.81
2022-10-04T11:06:17.437Z,98977.47
2022-10-04T11:09:25.844Z,98982.28
2022-10-04T11:12:26.375Z,98979.47
2022-10-04T11:15:21.029Z,98977.56
2022-10-04T11:18:20.607Z,98974.16
2022-10-04T11:21:11.721Z,98966.41
2022-10-04T11:24:14.405Z,98958.25
2022-10-04T11:27:09.144Z,98955.84
2022-10-04T11:30:01.870Z,98954.84
2022-10-04T11:33:14.856Z,98948.47
2022-10-04T11:36:01.525Z,98945.69
2022-10-04T11:39:01.489Z,98941.44
2022-10-04T11:41:50.366Z,98943.53
2022-10-04T11:44:59.990Z,98933.41
2022-10-04T11:47:43.318Z,98920.41
2022-10-04T11:50:37.307Z,98925.97
2022-10-04T11:53:42.227Z,98921.56
2022-10-04T11:56:34.252Z,98915.13
2022-10-04T11:59:19.078Z,98911.56
2022-10-04T12:02:09.427Z,98910.91
2022-10-04T12:05:12.840Z,98911.06
2022-10-04T12:08:04.617Z,98906.31
2022-10-04T12:10:39.582Z,98910.72
2022-10-04T12:13:41.119Z,98902.66
2022-10-04T12:16:41.337Z,98898.31
2022-10-04T12:19:34.303Z,98898.47
2022-10-04T12:22:32.090Z,98893.88
2022-10-04T12:25:35.312Z,98892.56
2022-10-04T12:28:21.711Z,98897.00
2022-10-04T12:31:17.045Z,98892.91
2022-10-04T12:33:54.834Z,98888.50
2022-10-04T12:36:41.550Z,98879.03
2022-10-04T12:39:42.264Z,98889.88
2022-10-04T12:42:29.291Z,98881.94
2022-10-04T12:45:26.365Z,98878.81
2022-10-04T12:48:08.680Z,98877.94
2022-10-04T12:50:52.651Z,98874.75
2022-10-04T12:53:39.237Z,98877.16
2022-10-04T12:56:22.415Z,98873.63
2022-10-04T12:59:15.513Z,98870.84
2022-10-04T13:01:59.488Z,98862.84
2022-10-04T13:04:36.441Z,98869.78
2022-10-04T13:07:29.111Z,98871.44
2022-10-04T13:10:24.519Z,98869.34
2022-10-04T13:13:35.154Z,98867.91
2022-10-04T13:19:22.633Z,98860.94
2022-10-04T13:22:37.545Z,98858.72
2022-10-04T13:25:29.481Z,98858.63
2022-10-04T13:28:05.996Z,98866.97
2022-10-04T13:30:41.273Z,98866.75
2022-10-04T13:33:27.028Z,98870.00
2022-10-04T13:36:06.743Z,98868.66
2022-10-04T13:39:10.949Z,98863.53
2022-10-04T13:41:58.242Z,98873.63
2022-10-04T13:44:48.474Z,98873.72
2022-10-04T13:47:45.097Z,98861.75
2022-10-04T13:50:35.144Z,98871.34
2022-10-04T13:53:31.702Z,98865.31
2022-10-04T13:56:21.168Z,98868.44
2022-10-04T13:59:00.818Z,98862.97
2022-10-04T14:02:10.626Z,98866.63
2022-10-04T14:05:09.636Z,98872.13
2022-10-04T14:08:07.294Z,98868.97
2022-10-04T14:10:59.123Z,98874.94
2022-10-04T14:13:55.697Z,98864.84
2022-10-04T14:16:47.295Z,98846.44
2022-10-04T14:20:00.632Z,98857.66
2022-10-04T14:22:51.803Z,98852.88
2022-10-04T14:26:05.302Z,98847.81
2022-10-04T14:29:16.316Z,98840.28
2022-10-04T14:32:10.103Z,98839.00
2022-10-04T14:35:00.683Z,98832.25
2022-10-04T14:37:56.356Z,98838.13
2022-10-04T14:41:07.410Z,98829.09
2022-10-04T14:44:26.488Z,98839.94
2022-10-04T14:47:14.402Z,98835.22
2022-10-04T14:50:02.361Z,98829.78
2022-10-04T14:52:46.741Z,98828.22
2022-10-04T14:55:32.646Z,98834.19
2022-10-04T14:58:19.076Z,98837.28
2022-10-04T15:01:05.954Z,98833.19
2022-10-04T15:03:49.883Z,98823.28
2022-10-04T15:06:29.903Z,98833.66
2022-10-04T15:09:28.882Z,98840.00
2022-10-04T15:12:29.572Z,98828.94
2022-10-04T15:15:23.974Z,98827.44
2022-10-04T15:18:04.335Z,98827.41
2022-10-04T15:20:53.470Z,98825.16
2022-10-04T15:23:35.806Z,98825.16
2022-10-04T15:26:11.365Z,98822.44
2022-10-04T15:29:00.192Z,98820.47
2022-10-04T15:31:37.817Z,98822.47
2022-10-04T15:34:16.888Z,98812.25
2022-10-04T15:37:06.117Z,98811.91
2022-10-04T15:40:02.496Z,98809.22
2022-10-04T15:42:36.613Z,98811.19
2022-10-04T15:45:25.949Z,98811.63
2022-10-04T15:48:13.388Z,98815.66
2022-10-04T15:50:57.764Z,98808.03
2022-10-04T15:53:50.564Z,98807.84
2022-10-04T15:56:36.180Z,98818.50
2022-10-04T15:59:25.238Z,98818.66
2022-10-04T16:02:11.176Z,98813.56
2022-10-04T16:04:48.167Z,98810.06
2022-10-04T16:07:51.754Z,98816.41
2022-10-04T16:10:31.260Z,98808.53
2022-10-04T16:13:23.142Z,98804.63
2022-10-04T16:16:34.083Z,98803.09
2022-10-04T16:19:14.215Z,98801.97
2022-10-04T16:21:53.015Z,98791.69
2022-10-04T16:24:45.833Z,98799.25
2022-10-04T16:27:46.261Z,98798.13
2022-10-04T16:30:28.323Z,98794.56
2022-10-04T16:33:22.999Z,98788.38
2022-10-04T16:36:08.798Z,98790.38
2022-10-04T16:39:06.447Z,98790.78
2022-10-04T16:41:44.406Z,98796.34
2022-10-04T16:44:32.062Z,98801.06
2022-10-04T16:47:05.126Z,98788.06
2022-10-04T16:49:42.000Z,98796.34
2022-10-04T16:52:30.330Z,98798.75
2022-10-04T16:55:13.542Z,98797.94
2022-10-04T16:57:43.591Z,98795.59
2022-10-04T17:00:38.842Z,98802.69
2022-10-04T17:03:26.825Z,98801.09
2022-10-04T17:06:15.016Z,98810.16
2022-10-04T17:09:04.709Z,98811.34
2022-10-04T17:12:00.388Z,98823.91
2022-10-04T17:14:50.338Z,98824.63
2022-10-04T17:17:26.883Z,98822.22
2022-10-04T17:19:59.164Z,98827.66
2022-10-04T17:22:38.793Z,98826.44
2022-10-04T17:25:27.809Z,98820.19
2022-10-04T17:28:02.089Z,98830.81
2022-10-04T17:30:46.186Z,98830.84
2022-10-04T17:33:30.908Z,98820.56
2022-10-04T17:36:07.609Z,98822.94
2022-10-04T17:38:47.333Z,98809.91
2022-10-04T17:41:26.776Z,98798.16
2022-10-04T17:44:28.729Z,98806.44
2022-10-04T17:47:04.680Z,98795.03
2022-10-04T17:49:58.485Z,98799.28
2022-10-04T17:52:49.276Z,98789.84
2022-10-04T17:55:28.920Z,98788.28
2022-10-04T17:58:05.254Z,98780.44
2022-10-04T18:00:54.452Z,98770.94
2022-10-04T18:03:28.202Z,98774.47
2022-10-04T18:06:03.851Z,98775.25
2022-10-04T18:08:47.148Z,98778.75
2022-10-04T18:11:27.775Z,98769.28
2022-10-04T18:14:03.871Z,98788.53
2022-10-04T18:16:35.492Z,98788.13
2022-10-04T18:19:36.216Z,98799.50
2022-10-04T18:22:15.792Z,98793.22
2022-10-04T18:24:47.678Z,98791.22
2022-10-04T18:27:21.412Z,98795.53
2022-10-04T18:30:10.818Z,98799.78
2022-10-04T18:32:40.985Z,98804.50
2022-10-04T18:35:27.532Z,98805.31
2022-10-04T18:38:16.058Z,98811.59
2022-10-04T18:40:56.713Z,98818.56
2022-10-04T18:43:30.066Z,98816.50
2022-10-04T18:46:07.019Z,98817.75
2022-10-04T18:48:43.587Z,98820.91
2022-10-04T18:51:30.013Z,98816.50
2022-10-04T18:54:26.499Z,98827.84
2022-10-04T18:57:07.673Z,98830.22
2022-10-04T18:59:59.375Z,98826.19
2022-10-04T19:02:35.850Z,98827.00
2022-10-04T19:05:15.521Z,98836.00
2022-10-04T19:07:52.367Z,98830.13
2022-10-04T19:10:30.773Z,98834.03
2022-10-04T19:13:14.066Z,98835.97
2022-10-04T19:15:52.035Z,98836.31
2022-10-04T19:18:40.339Z,98838.22
2022-10-04T19:21:22.020Z,98841.75
2022-10-04T19:24:10.411Z,98845.66
2022-10-04T19:26:44.699Z,98851.50
2022-10-04T19:29:28.683Z,98847.09
2022-10-04T19:32:04.070Z,98854.06
2022-10-04T19:34:45.649Z,98847.78
2022-10-04T19:37:24.542Z,98841.84
2022-10-04T19:40:07.937Z,98854.81
2022-10-04T19:42:50.433Z,98857.91
2022-10-04T19:45:28.806Z,98851.69
2022-10-04T19:48:01.620Z,98862.69
2022-10-04T19:50:35.663Z,98864.78
2022-10-04T19:53:10.280Z,98863.59
2022-10-04T19:55:50.014Z,98871.94
2022-10-04T19:58:32.109Z,98873.78
2022-10-04T20:01:02.112Z,98866.31
2022-10-04T20:03:31.954Z,98868.78
2022-10-04T20:06:03.608Z,98870.25
2022-10-04T20:08:55.733Z,98869.16
2022-10-04T20:11:30.627Z,98869.09
2022-10-04T20:14:50.323Z,98878.06
2022-10-04T20:17:36.088Z,98885.94
2022-10-04T20:20:06.098Z,98883.50
2022-10-04T20:22:58.096Z,98895.28
2022-10-04T20:25:57.883Z,98898.84
2022-10-04T20:28:45.136Z,98900.34
2022-10-04T20:31:53.233Z,98901.00
2022-10-04T20:34:35.989Z,98904.19
2022-10-04T20:37:08.386Z,98901.06
2022-10-04T20:40:02.293Z,98910.00
2022-10-04T20:42:36.627Z,98910.72
2022-10-04T20:45:24.883Z,98911.97
2022-10-04T20:47:57.862Z,98918.63
2022-10-04T20:50:42.529Z,98913.03
2022-10-04T20:53:21.945Z,98923.56
2022-10-04T20:55:54.074Z,98923.75
2022-10-04T20:58:35.568Z,98930.00
2022-10-04T21:01:17.090Z,98927.59
2022-10-04T21:03:46.982Z,98930.66
2022-10-04T21:06:19.424Z,98925.91
2022-10-04T21:08:50.408Z,98927.47
2022-10-04T21:11:22.657Z,98938.56
2022-10-04T21:14:03.121Z,98940.56
2022-10-04T21:16:45.066Z,98946.56
2022-10-04T21:19:50.681Z,98952.06
2022-10-04T21:22:39.656Z,98946.63
2022-10-04T21:25:32.223Z,98956.34
2022-10-04T21:28:40.608Z,98956.72
2022-10-04T21:31:10.728Z,98958.16
2022-10-04T21:33:40.925Z,98953.00
2022-10-04T21:36:11.401Z,98956.28
2022-10-04T21:38:43.791Z,98955.25
2022-10-04T21:41:13.603Z,98945.88
2022-10-04T21:43:43.337Z,98956.41
2022-10-04T21:46:17.854Z,98950.63
2022-10-04T21:48:49.916Z,98952.63
2022-10-04T21:51:19.849Z,98948.06
2022-10-04T21:53:52.264Z,98949.53
2022-10-04T21:56:22.041Z,98955.00
2022-10-04T21:58:51.846Z,98956.13
2022-10-04T22:01:21.653Z,98952.06
2022-10-04T22:03:51.511Z,98953.59
2022-10-04T22:06:22.117Z,98955.03
2022-10-04T22:08:54.493Z,98957.34
2022-10-04T22:11:24.270Z,98968.72
2022-10-04T22:13:54.132Z,98959.50
2022-10-04T22:16:23.909Z,98953.63
2022-10-04T22:18:54.066Z,98947.66
2022-10-04T22:21:23.832Z,98956.22
2022-10-04T22:23:56.219Z,98941.25
2022-10-04T22:26:28.760Z,98936.13
2022-10-04T22:28:59.257Z,98947.84
2022-10-04T22:31:30.593Z,98935.78
2022-10-04T22:34:00.402Z,98924.63
2022-10-04T22:36:38.059Z,98924.88
2022-10-04T22:39:16.269Z,98922.38
2022-10-04T22:41:48.194Z,98922.94
2022-10-04T22:44:20.968Z,98908.81
2022-10-04T22:46:54.164Z,98903.78
2022-10-04T22:49:26.871Z,98910.75
2022-10-04T22:51:59.034Z,98901.91
2022-10-04T22:54:35.177Z,98901.22
2022-10-04T22:57:05.064Z,98905.97
2022-10-04T22:59:38.047Z,98886.84
2022-10-04T23:02:13.701Z,98893.84
2022-10-04T23:04:44.158Z,98890.31
2022-10-04T23:07:14.041Z,98888.13
2022-10-04T23:09:46.674Z,98886.72
2022-10-04T23:12:16.644Z,98891.97
2022-10-04T23:14:46.480Z,98883.97
2022-10-04T23:17:24.781Z,98874.84
2022-10-04T23:19:56.409Z,98879.16
2022-10-04T23:22:29.954Z,98876.75
2022-10-04T23:25:03.177Z,98878.88
2022-10-04T23:27:33.098Z,98873.47
2022-10-04T23:30:05.509Z,98876.44
2022-10-04T23:32:36.148Z,98878.44
2022-10-04T23:35:07.937Z,98886.59
2022-10-04T23:37:37.719Z,98888.16
2022-10-04T23:40:12.694Z,98877.50
2022-10-04T23:42:42.923Z,98875.94
2022-10-04T23:45:20.435Z,98868.38
2022-10-04T23:47:52.685Z,98863.41
2022-10-04T23:50:28.544Z,98863.19
2022-10-04T23:53:02.716Z,98861.59
2022-10-04T23:55:38.930Z,98858.66
2022-10-04T23:58:16.419Z,98865.69
